Richlands, VA

2:36 PM EDT on September 21, 2014 (GMT -0400)
Tazewell County | Change Station
CLOSE
Current Station
Airport
Location: Richlands,
Elevation: 2651 ft
Nearby Weather Stations

Elev 2651 ft 37.06 °N, 81.80 °W | Updated 21 minutes ago

Light Rain
Light Rain
69 °F
Feels Like 69 °F
N
5
Wind Variable Wind from WSW

Today
High -- | Low -- °F
--% Chance of Precip.
Yesterday
High -- | Low -- °F
Precip. -- in
7:14 AM 7:25 PM
Waning Crescent, 6% visible
Pressure 29.97 in
Visibility 1.8 miles
Clouds Mostly Cloudy 1700 ft
Overcast 2600 ft
Dew Point 66 °F
Humidity 91%
Rainfall 0.16 in
Snow Depth Not available.
UV 2 out of 12
Pollen 5.90 out of 12
Air Quality Not available.
Flu Activity Not available.
METAR KJFZ 211815Z AUTO 25004KT 1 3/4SM -RA BKN017 OVC026 20/19 A2997 RMK AO2 P0016 T02040189

More Conditions Fewer Conditions

Pressure 29.97 in
Visibility 1.8 miles
Clouds Mostly Cloudy 1700 ft
Overcast 2600 ft
Dew Point 66 °F
Humidity 91%
Rainfall 0.16 in
Snow Depth Not available.
UV 2 out of 12
Pollen 5.90 out of 12
Air Quality Not available.
Flu Activity Not available.
METAR KJFZ 211815Z AUTO 25004KT 1 3/4SM -RA BKN017 OVC026 20/19 A2997 RMK AO2 P0016 T02040189

More Conditions Fewer Conditions

10-Day Weather Forecast

Almanac

Astronomy

Sep. 21, 2014 Rise Set
Actual Time 7:14 AM EDT 7:25 PM EDT
Civil Twilight 6:48 AM EDT 7:51 PM EDT
Nautical Twilight 6:17 AM EDT 8:21 PM EDT
Astronomical Twilight 5:47 AM EDT 8:52 PM EDT
Moon 4:49 AM EDT 5:59 PM EDT
Length of Visible Light 13h 03m
Length of Day
12h 11m
Tomorrow will be 2m 22s shorter.
Waning Crescent, 6% of the Moon is Illuminated
Today
Waning Crescent
Sep 24
New
Oct 1
First Quarter
Oct 8
Full
Oct 15
Last Quarter

Today's Extremes

State Highs State Lows

Community

WunderPhotos

Upload Photos

1,755,212 photos uploaded!

WunderBlogs® & News

Nearby

Snow Depth

Station Depth Elevation
No new snow has been reported.

Earthquake Activity

City Distance Mag. Time & Date
No recent earthquake activity has been reported nearby.
Minimum magnitude displayed is 2.5.

Coastal Water Temperatures

Place Temperature
No Stations Reporting

Nearby Weather Stations